sensor_id;sensor_type;location;lat;lon;timestamp;pressure;altitude;pressure_sealevel;temperature;humidity
17362;BME280;8798;51.938;4.348;2022-09-06T00:01:09;101319.50;;;21.37;79.01
17362;BME280;8798;51.938;4.348;2022-09-06T00:03:38;101332.09;;;21.38;79.35
17362;BME280;8798;51.938;4.348;2022-09-06T00:06:07;101338.44;;;21.39;79.36
17362;BME280;8798;51.938;4.348;2022-09-06T00:08:37;101348.97;;;21.42;79.22
17362;BME280;8798;51.938;4.348;2022-09-06T00:11:05;101359.91;;;21.42;79.00
17362;BME280;8798;51.938;4.348;2022-09-06T00:13:33;101359.91;;;21.42;79.39
17362;BME280;8798;51.938;4.348;2022-09-06T00:16:06;101367.28;;;21.41;79.24
17362;BME280;8798;51.938;4.348;2022-09-06T00:18:35;101369.78;;;21.43;79.15
17362;BME280;8798;51.938;4.348;2022-09-06T00:21:03;101371.69;;;21.42;79.06
17362;BME280;8798;51.938;4.348;2022-09-06T00:23:32;101378.81;;;21.43;79.10
17362;BME280;8798;51.938;4.348;2022-09-06T00:26:04;101386.00;;;21.44;79.45
17362;BME280;8798;51.938;4.348;2022-09-06T00:28:32;101393.13;;;21.45;79.09
17362;BME280;8798;51.938;4.348;2022-09-06T00:31:07;101396.69;;;21.46;79.31
17362;BME280;8798;51.938;4.348;2022-09-06T00:33:36;101413.09;;;21.46;79.49
17362;BME280;8798;51.938;4.348;2022-09-06T00:36:04;101401.34;;;21.45;79.43
17362;BME280;8798;51.938;4.348;2022-09-06T00:38:32;101402.41;;;21.44;79.33
17362;BME280;8798;51.938;4.348;2022-09-06T00:41:00;101396.09;;;21.44;79.22
17362;BME280;8798;51.938;4.348;2022-09-06T00:43:29;101385.56;;;21.41;78.84
17362;BME280;8798;51.938;4.348;2022-09-06T00:45:57;101368.72;;;21.37;79.27
17362;BME280;8798;51.938;4.348;2022-09-06T00:48:25;101341.38;;;21.31;79.51
17362;BME280;8798;51.938;4.348;2022-09-06T00:50:56;101321.19;;;21.25;79.33
17362;BME280;8798;51.938;4.348;2022-09-06T00:53:25;101299.31;;;21.18;79.37
17362;BME280;8798;51.938;4.348;2022-09-06T00:55:54;101278.09;;;21.14;79.57
17362;BME280;8798;51.938;4.348;2022-09-06T00:58:22;101259.59;;;21.09;79.53
17362;BME280;8798;51.938;4.348;2022-09-06T01:00:53;101240.28;;;21.04;79.43
17362;BME280;8798;51.938;4.348;2022-09-06T01:03:21;101241.34;;;21.03;79.46
17362;BME280;8798;51.938;4.348;2022-09-06T01:05:57;101236.06;;;21.01;79.74
17362;BME280;8798;51.938;4.348;2022-09-06T01:08:36;101234.41;;;21.00;79.47
17362;BME280;8798;51.938;4.348;2022-09-06T01:11:19;101232.72;;;20.99;79.59
17362;BME280;8798;51.938;4.348;2022-09-06T01:13:55;101221.38;;;20.96;79.67
17362;BME280;8798;51.938;4.348;2022-09-06T01:16:34;101207.31;;;20.92;79.81
17362;BME280;8798;51.938;4.348;2022-09-06T01:19:26;101198.47;;;20.90;79.92
17362;BME280;8798;51.938;4.348;2022-09-06T01:22:07;101206.03;;;20.88;79.68
17362;BME280;8798;51.938;4.348;2022-09-06T01:25:00;101202.47;;;20.88;79.76
17362;BME280;8798;51.938;4.348;2022-09-06T01:28:01;101211.50;;;20.88;79.93
17362;BME280;8798;51.938;4.348;2022-09-06T01:30:40;101197.44;;;20.85;79.93
17362;BME280;8798;51.938;4.348;2022-09-06T01:33:17;101200.38;;;20.83;80.07
17362;BME280;8798;51.938;4.348;2022-09-06T01:35:49;101200.38;;;20.83;80.05
17362;BME280;8798;51.938;4.348;2022-09-06T01:38:17;101205.84;;;20.83;80.25
17362;BME280;8798;51.938;4.348;2022-09-06T01:40:45;101203.94;;;20.83;80.12
17362;BME280;8798;51.938;4.348;2022-09-06T01:43:20;101214.03;;;20.83;80.04
17362;BME280;8798;51.938;4.348;2022-09-06T01:45:57;101206.88;;;20.82;80.21
17362;BME280;8798;51.938;4.348;2022-09-06T01:48:35;101226.63;;;20.84;80.08
17362;BME280;8798;51.938;4.348;2022-09-06T01:51:14;101239.88;;;20.87;80.26
17362;BME280;8798;51.938;4.348;2022-09-06T01:54:20;101255.22;;;20.88;80.05
17362;BME280;8798;51.938;4.348;2022-09-06T01:57:04;101241.97;;;20.85;80.23
17362;BME280;8798;51.938;4.348;2022-09-06T01:59:58;101255.41;;;20.87;80.18
17362;BME280;8798;51.938;4.348;2022-09-06T02:02:36;101243.88;;;20.85;80.24
17362;BME280;8798;51.938;4.348;2022-09-06T02:05:10;101241.16;;;20.85;80.27
17362;BME280;8798;51.938;4.348;2022-09-06T02:07:41;101252.91;;;20.85;80.14
17362;BME280;8798;51.938;4.348;2022-09-06T02:10:15;101258.13;;;20.87;80.45
17362;BME280;8798;51.938;4.348;2022-09-06T02:12:48;101268.84;;;20.88;80.42
17362;BME280;8798;51.938;4.348;2022-09-06T02:15:22;101289.25;;;20.92;80.37
17362;BME280;8798;51.938;4.348;2022-09-06T02:17:56;101292.59;;;20.94;80.45
17362;BME280;8798;51.938;4.348;2022-09-06T02:20:29;101311.50;;;20.96;80.31
17362;BME280;8798;51.938;4.348;2022-09-06T02:23:00;101315.31;;;20.95;80.33
17362;BME280;8798;51.938;4.348;2022-09-06T02:25:32;101313.59;;;20.94;80.35
17362;BME280;8798;51.938;4.348;2022-09-06T02:28:01;101310.03;;;20.93;80.16
17362;BME280;8798;51.938;4.348;2022-09-06T02:30:32;101309.22;;;20.93;80.33
17362;BME280;8798;51.938;4.348;2022-09-06T02:33:05;101302.03;;;20.92;80.25
17362;BME280;8798;51.938;4.348;2022-09-06T02:35:41;101294.09;;;20.90;80.30
17362;BME280;8798;51.938;4.348;2022-09-06T02:38:09;101289.03;;;20.87;80.33
17362;BME280;8798;51.938;4.348;2022-09-06T02:40:37;101281.03;;;20.86;80.33
17362;BME280;8798;51.938;4.348;2022-09-06T02:43:06;101278.50;;;20.84;80.54
17362;BME280;8798;51.938;4.348;2022-09-06T02:45:35;101271.38;;;20.83;80.33
17362;BME280;8798;51.938;4.348;2022-09-06T02:48:03;101268.00;;;20.81;80.11
17362;BME280;8798;51.938;4.348;2022-09-06T02:50:31;101261.91;;;20.79;80.32
17362;BME280;8798;51.938;4.348;2022-09-06T02:53:04;101267.38;;;20.79;80.34
17362;BME280;8798;51.938;4.348;2022-09-06T02:55:32;101268.44;;;20.78;80.40
17362;BME280;8798;51.938;4.348;2022-09-06T02:58:00;101263.81;;;20.78;80.53
17362;BME280;8798;51.938;4.348;2022-09-06T03:00:28;101271.16;;;20.78;80.42
17362;BME280;8798;51.938;4.348;2022-09-06T03:02:58;101276.63;;;20.78;80.50
17362;BME280;8798;51.938;4.348;2022-09-06T03:05:26;101273.25;;;20.76;80.37
17362;BME280;8798;51.938;4.348;2022-09-06T03:07:55;101271.38;;;20.76;80.55
17362;BME280;8798;51.938;4.348;2022-09-06T03:10:23;101286.72;;;20.77;80.46
17362;BME280;8798;51.938;4.348;2022-09-06T03:12:52;101296.59;;;20.78;80.47
17362;BME280;8798;51.938;4.348;2022-09-06T03:15:20;101303.72;;;20.79;80.71
17362;BME280;8798;51.938;4.348;2022-09-06T03:17:47;101304.78;;;20.78;80.55
17362;BME280;8798;51.938;4.348;2022-09-06T03:20:16;101307.31;;;20.80;80.68
17362;BME280;8798;51.938;4.348;2022-09-06T03:22:44;101326.00;;;20.83;80.64
17362;BME280;8798;51.938;4.348;2022-09-06T03:25:12;101321.81;;;20.80;80.64
17362;BME280;8798;51.938;4.348;2022-09-06T03:27:40;101328.09;;;20.81;80.80
17362;BME280;8798;51.938;4.348;2022-09-06T03:30:09;101322.84;;;20.79;80.42
17362;BME280;8798;51.938;4.348;2022-09-06T03:32:37;101344.28;;;20.82;80.71
17362;BME280;8798;51.938;4.348;2022-09-06T03:35:05;101348.50;;;20.85;80.72
17362;BME280;8798;51.938;4.348;2022-09-06T03:37:34;101358.34;;;20.86;80.75
17362;BME280;8798;51.938;4.348;2022-09-06T03:40:02;101362.78;;;20.87;80.63
17362;BME280;8798;51.938;4.348;2022-09-06T03:42:30;101370.75;;;20.89;80.79
17362;BME280;8798;51.938;4.348;2022-09-06T03:44:58;101375.38;;;20.88;80.94
17362;BME280;8798;51.938;4.348;2022-09-06T03:47:25;101381.69;;;20.89;80.74
17362;BME280;8798;51.938;4.348;2022-09-06T03:49:53;101385.47;;;20.88;80.75
17362;BME280;8798;51.938;4.348;2022-09-06T03:52:21;101368.25;;;20.87;80.85
17362;BME280;8798;51.938;4.348;2022-09-06T03:54:50;101380.00;;;20.88;80.90
17362;BME280;8798;51.938;4.348;2022-09-06T03:57:18;101381.91;;;20.87;80.53
17362;BME280;8798;51.938;4.348;2022-09-06T03:59:45;101385.47;;;20.88;81.02
17362;BME280;8798;51.938;4.348;2022-09-06T04:02:13;101387.16;;;20.89;80.95
17362;BME280;8798;51.938;4.348;2022-09-06T04:04:41;101396.41;;;20.88;81.01
17362;BME280;8798;51.938;4.348;2022-09-06T04:07:09;101397.25;;;20.88;81.02
17362;BME280;8798;51.938;4.348;2022-09-06T04:09:37;101395.56;;;20.87;80.91
17362;BME280;8798;51.938;4.348;2022-09-06T04:12:06;101392.19;;;20.85;81.05
17362;BME280;8798;51.938;4.348;2022-09-06T04:14:34;101380.44;;;20.85;81.02
17362;BME280;8798;51.938;4.348;2022-09-06T04:17:02;101377.06;;;20.82;81.21
17362;BME280;8798;51.938;4.348;2022-09-06T04:19:29;101387.75;;;20.84;81.11
17362;BME280;8798;51.938;4.348;2022-09-06T04:21:57;101387.13;;;20.82;81.20
17362;BME280;8798;51.938;4.348;2022-09-06T04:24:25;101392.59;;;20.82;81.16
17362;BME280;8798;51.938;4.348;2022-09-06T04:26:52;101397.03;;;20.83;81.12
17362;BME280;8798;51.938;4.348;2022-09-06T04:29:22;101395.31;;;20.82;81.31
17362;BME280;8798;51.938;4.348;2022-09-06T04:31:50;101396.19;;;20.82;81.22
17362;BME280;8798;51.938;4.348;2022-09-06T04:34:17;101400.59;;;20.83;81.05
17362;BME280;8798;51.938;4.348;2022-09-06T04:36:46;101395.53;;;20.80;81.27
17362;BME280;8798;51.938;4.348;2022-09-06T04:39:14;101378.72;;;20.77;81.14
17362;BME280;8798;51.938;4.348;2022-09-06T04:41:41;101378.94;;;20.75;81.23
17362;BME280;8798;51.938;4.348;2022-09-06T04:44:09;101375.56;;;20.73;81.17
17362;BME280;8798;51.938;4.348;2022-09-06T04:46:40;101358.53;;;20.71;81.31
17362;BME280;8798;51.938;4.348;2022-09-06T04:49:08;101360.63;;;20.69;81.42
17362;BME280;8798;51.938;4.348;2022-09-06T04:51:36;101357.06;;;20.69;81.35
17362;BME280;8798;51.938;4.348;2022-09-06T04:54:04;101362.53;;;20.69;81.62
17362;BME280;8798;51.938;4.348;2022-09-06T04:56:32;101358.13;;;20.68;81.33
17362;BME280;8798;51.938;4.348;2022-09-06T04:59:00;101362.72;;;20.67;81.57
17362;BME280;8798;51.938;4.348;2022-09-06T05:01:28;101358.31;;;20.66;81.48
17362;BME280;8798;51.938;4.348;2022-09-06T05:03:57;101349.28;;;20.66;81.28
17362;BME280;8798;51.938;4.348;2022-09-06T05:06:25;101338.78;;;20.63;81.59
17362;BME280;8798;51.938;4.348;2022-09-06T05:08:53;101339.81;;;20.61;81.50
17362;BME280;8798;51.938;4.348;2022-09-06T05:11:20;101325.75;;;20.58;81.61
17362;BME280;8798;51.938;4.348;2022-09-06T05:13:48;101317.56;;;20.58;81.56
17362;BME280;8798;51.938;4.348;2022-09-06T05:16:16;101337.50;;;20.58;81.63
17362;BME280;8798;51.938;4.348;2022-09-06T05:18:44;101315.25;;;20.55;81.70
17362;BME280;8798;51.938;4.348;2022-09-06T05:21:13;101329.91;;;20.54;81.69
17362;BME280;8798;51.938;4.348;2022-09-06T05:23:41;101324.44;;;20.54;81.68
17362;BME280;8798;51.938;4.348;2022-09-06T05:26:09;101320.03;;;20.53;81.87
17362;BME280;8798;51.938;4.348;2022-09-06T05:28:37;101317.50;;;20.51;81.76
17362;BME280;8798;51.938;4.348;2022-09-06T05:31:06;101324.84;;;20.51;81.76
17362;BME280;8798;51.938;4.348;2022-09-06T05:33:34;101322.13;;;20.51;81.71
17362;BME280;8798;51.938;4.348;2022-09-06T05:36:03;101324.63;;;20.52;81.86
17362;BME280;8798;51.938;4.348;2022-09-06T05:38:32;101331.16;;;20.51;82.01
17362;BME280;8798;51.938;4.348;2022-09-06T05:41:00;101335.56;;;20.52;81.96
17362;BME280;8798;51.938;4.348;2022-09-06T05:43:28;101345.44;;;20.53;81.97
17362;BME280;8798;51.938;4.348;2022-09-06T05:45:56;101352.56;;;20.54;81.86
17362;BME280;8798;51.938;4.348;2022-09-06T05:48:24;101349.84;;;20.54;82.06
17362;BME280;8798;51.938;4.348;2022-09-06T05:50:59;101349.00;;;20.54;82.11
17362;BME280;8798;51.938;4.348;2022-09-06T05:53:34;101359.94;;;20.54;82.12
17362;BME280;8798;51.938;4.348;2022-09-06T05:56:03;101363.50;;;20.54;81.96
17362;BME280;8798;51.938;4.348;2022-09-06T05:58:31;101361.66;;;20.55;82.18
17362;BME280;8798;51.938;4.348;2022-09-06T06:01:06;101368.94;;;20.54;82.01
17362;BME280;8798;51.938;4.348;2022-09-06T06:03:34;101369.84;;;20.55;82.09
17362;BME280;8798;51.938;4.348;2022-09-06T06:06:02;101377.81;;;20.56;82.17
17362;BME280;8798;51.938;4.348;2022-09-06T06:08:30;101385.59;;;20.59;82.07
17362;BME280;8798;51.938;4.348;2022-09-06T06:11:00;101391.91;;;20.60;82.00
17362;BME280;8798;51.938;4.348;2022-09-06T06:13:28;101399.03;;;20.61;82.13
17362;BME280;8798;51.938;4.348;2022-09-06T06:16:00;101406.19;;;20.62;82.13
17362;BME280;8798;51.938;4.348;2022-09-06T06:18:28;101397.38;;;20.60;82.14
17362;BME280;8798;51.938;4.348;2022-09-06T06:21:06;101400.09;;;20.60;82.21
17362;BME280;8798;51.938;4.348;2022-09-06T06:23:35;101394.66;;;20.60;82.25
17362;BME280;8798;51.938;4.348;2022-09-06T06:26:05;101408.06;;;20.61;81.88
17362;BME280;8798;51.938;4.348;2022-09-06T06:28:33;101408.06;;;20.61;82.05
17362;BME280;8798;51.938;4.348;2022-09-06T06:31:02;101411.63;;;20.62;82.01
17362;BME280;8798;51.938;4.348;2022-09-06T06:33:30;101405.16;;;20.63;82.07
17362;BME280;8798;51.938;4.348;2022-09-06T06:35:59;101413.13;;;20.65;82.11
17362;BME280;8798;51.938;4.348;2022-09-06T06:38:30;101424.69;;;20.67;82.00
17362;BME280;8798;51.938;4.348;2022-09-06T06:40:59;101441.72;;;20.69;82.18
17362;BME280;8798;51.938;4.348;2022-09-06T06:43:33;101451.38;;;20.71;82.04
17362;BME280;8798;51.938;4.348;2022-09-06T06:46:04;101455.81;;;20.72;81.98
17362;BME280;8798;51.938;4.348;2022-09-06T06:48:32;101474.28;;;20.77;82.21
17362;BME280;8798;51.938;4.348;2022-09-06T06:51:00;101483.13;;;20.79;82.19
17362;BME280;8798;51.938;4.348;2022-09-06T06:53:28;101506.91;;;20.85;82.10
17362;BME280;8798;51.938;4.348;2022-09-06T06:55:55;101522.69;;;20.90;82.14
17362;BME280;8798;51.938;4.348;2022-09-06T06:58:23;101530.47;;;20.93;81.98
17362;BME280;8798;51.938;4.348;2022-09-06T07:00:53;101559.91;;;20.97;82.02
17362;BME280;8798;51.938;4.348;2022-09-06T07:03:20;101565.81;;;21.01;81.92
17362;BME280;8798;51.938;4.348;2022-09-06T07:05:48;101574.66;;;21.03;82.07
17362;BME280;8798;51.938;4.348;2022-09-06T07:08:36;101584.34;;;21.05;81.84
17362;BME280;8798;51.938;4.348;2022-09-06T07:11:05;101589.59;;;21.07;81.81
17362;BME280;8798;51.938;4.348;2022-09-06T07:13:33;101594.00;;;21.08;81.68
17362;BME280;8798;51.938;4.348;2022-09-06T07:16:10;101581.19;;;21.09;81.61
17362;BME280;8798;51.938;4.348;2022-09-06T07:18:39;101583.91;;;21.09;81.55
17362;BME280;8798;51.938;4.348;2022-09-06T07:21:09;101582.88;;;21.10;81.46
17362;BME280;8798;51.938;4.348;2022-09-06T07:23:58;101581.81;;;21.11;81.34
17362;BME280;8798;51.938;4.348;2022-09-06T07:26:35;101590.69;;;21.13;81.40
17362;BME280;8798;51.938;4.348;2022-09-06T07:29:04;101589.41;;;21.15;81.42
17362;BME280;8798;51.938;4.348;2022-09-06T07:31:36;101602.91;;;21.17;81.18
17362;BME280;8798;51.938;4.348;2022-09-06T07:34:24;101599.94;;;21.18;81.35
17362;BME280;8798;51.938;4.348;2022-09-06T07:36:52;101603.31;;;21.20;81.30
17362;BME280;8798;51.938;4.348;2022-09-06T07:39:20;101613.00;;;21.23;81.09
17362;BME280;8798;51.938;4.348;2022-09-06T07:41:48;101615.53;;;21.24;81.02
17362;BME280;8798;51.938;4.348;2022-09-06T07:44:16;101633.19;;;21.29;81.01
17362;BME280;8798;51.938;4.348;2022-09-06T07:46:45;101635.75;;;21.30;80.80
17362;BME280;8798;51.938;4.348;2022-09-06T07:49:13;101639.75;;;21.34;80.78
17362;BME280;8798;51.938;4.348;2022-09-06T07:51:41;101662.75;;;21.40;80.81
17362;BME280;8798;51.938;4.348;2022-09-06T07:54:09;101686.75;;;21.44;80.97
17362;BME280;8798;51.938;4.348;2022-09-06T07:56:56;101706.75;;;21.52;80.65
17362;BME280;8798;51.938;4.348;2022-09-06T07:59:24;101715.38;;;21.55;80.74
17362;BME280;8798;51.938;4.348;2022-09-06T08:01:54;101718.75;;;21.57;80.53
17362;BME280;8798;51.938;4.348;2022-09-06T08:04:22;101717.69;;;21.58;80.53
17362;BME280;8798;51.938;4.348;2022-09-06T08:06:50;101716.69;;;21.59;80.51
17362;BME280;8798;51.938;4.348;2022-09-06T08:09:38;101718.34;;;21.60;80.50
17362;BME280;8798;51.938;4.348;2022-09-06T08:12:06;101719.19;;;21.61;80.10
17362;BME280;8798;51.938;4.348;2022-09-06T08:14:34;101710.97;;;21.61;79.91
17362;BME280;8798;51.938;4.348;2022-09-06T08:17:03;101702.78;;;21.61;79.85
17362;BME280;8798;51.938;4.348;2022-09-06T08:19:31;101699.00;;;21.62;79.85
17362;BME280;8798;51.938;4.348;2022-09-06T08:21:59;101699.84;;;21.62;79.66
17362;BME280;8798;51.938;4.348;2022-09-06T08:24:27;101701.53;;;21.63;79.69
17362;BME280;8798;51.938;4.348;2022-09-06T08:26:55;101706.63;;;21.66;79.64
17362;BME280;8798;51.938;4.348;2022-09-06T08:29:23;101715.25;;;21.70;79.49
17362;BME280;8798;51.938;4.348;2022-09-06T08:31:52;101724.94;;;21.73;79.67
17362;BME280;8798;51.938;4.348;2022-09-06T08:34:21;101731.88;;;21.75;79.25
17362;BME280;8798;51.938;4.348;2022-09-06T08:36:49;101742.41;;;21.78;79.28
17362;BME280;8798;51.938;4.348;2022-09-06T08:39:17;101749.16;;;21.82;79.36
17362;BME280;8798;51.938;4.348;2022-09-06T08:41:48;101755.94;;;21.86;79.25
17362;BME280;8798;51.938;4.348;2022-09-06T08:44:21;101769.19;;;21.89;79.48
17362;BME280;8798;51.938;4.348;2022-09-06T08:47:11;101782.47;;;21.93;78.87
17362;BME280;8798;51.938;4.348;2022-09-06T08:49:42;101777.63;;;21.95;79.07
17362;BME280;8798;51.938;4.348;2022-09-06T08:52:22;101765.84;;;21.94;78.49
17362;BME280;8798;51.938;4.348;2022-09-06T08:55:02;101755.94;;;21.93;78.75
17362;BME280;8798;51.938;4.348;2022-09-06T08:57:43;101759.31;;;21.95;78.59
17362;BME280;8798;51.938;4.348;2022-09-06T09:00:18;101768.81;;;21.99;78.35
17362;BME280;8798;51.938;4.348;2022-09-06T09:02:48;101783.56;;;22.05;78.38
17362;BME280;8798;51.938;4.348;2022-09-06T09:05:21;101806.53;;;22.10;77.87
17362;BME280;8798;51.938;4.348;2022-09-06T09:07:59;101824.88;;;22.17;78.22
17362;BME280;8798;51.938;4.348;2022-09-06T09:10:30;101835.91;;;22.23;78.10
17362;BME280;8798;51.938;4.348;2022-09-06T09:13:03;101869.81;;;22.29;77.95
17362;BME280;8798;51.938;4.348;2022-09-06T09:15:35;101890.91;;;22.35;78.08
17362;BME280;8798;51.938;4.348;2022-09-06T09:18:06;101914.56;;;22.43;77.91
17362;BME280;8798;51.938;4.348;2022-09-06T09:20:36;101938.19;;;22.50;77.80
17362;BME280;8798;51.938;4.348;2022-09-06T09:23:04;101957.34;;;22.57;77.71
17362;BME280;8798;51.938;4.348;2022-09-06T09:25:33;101962.44;;;22.60;76.74
17362;BME280;8798;51.938;4.348;2022-09-06T09:28:01;101970.25;;;22.63;76.93
17362;BME280;8798;51.938;4.348;2022-09-06T09:30:44;101959.06;;;22.65;77.42
17362;BME280;8798;51.938;4.348;2022-09-06T09:33:26;101948.97;;;22.65;77.05
17362;BME280;8798;51.938;4.348;2022-09-06T09:35:57;101942.63;;;22.65;76.57
17362;BME280;8798;51.938;4.348;2022-09-06T09:38:27;101945.81;;;22.68;77.14
17362;BME280;8798;51.938;4.348;2022-09-06T09:40:58;101935.72;;;22.69;77.03
17362;BME280;8798;51.938;4.348;2022-09-06T09:43:29;101938.25;;;22.70;76.21
17362;BME280;8798;51.938;4.348;2022-09-06T09:46:15;101928.97;;;22.71;76.43
17362;BME280;8798;51.938;4.348;2022-09-06T09:49:00;101929.59;;;22.73;76.22
17362;BME280;8798;51.938;4.348;2022-09-06T09:51:31;101941.88;;;22.78;76.38
17362;BME280;8798;51.938;4.348;2022-09-06T09:54:01;101945.22;;;22.80;75.90
17362;BME280;8798;51.938;4.348;2022-09-06T09:56:34;101951.97;;;22.84;75.88
17362;BME280;8798;51.938;4.348;2022-09-06T09:59:07;101948.81;;;22.87;76.29
17362;BME280;8798;51.938;4.348;2022-09-06T10:01:42;101954.09;;;22.88;75.87
17362;BME280;8798;51.938;4.348;2022-09-06T10:04:11;101957.28;;;22.92;76.10
17362;BME280;8798;51.938;4.348;2022-09-06T10:07:12;101983.69;;;23.00;76.09
17362;BME280;8798;51.938;4.348;2022-09-06T10:09:41;101987.69;;;23.04;75.09
17362;BME280;8798;51.938;4.348;2022-09-06T10:12:15;102007.13;;;23.09;75.55
17362;BME280;8798;51.938;4.348;2022-09-06T10:14:45;102013.88;;;23.13;75.30
17362;BME280;8798;51.938;4.348;2022-09-06T10:17:20;102032.25;;;23.19;75.12
17362;BME280;8798;51.938;4.348;2022-09-06T10:19:55;102040.91;;;23.23;75.58
17362;BME280;8798;51.938;4.348;2022-09-06T10:22:29;102035.44;;;23.23;74.99
17362;BME280;8798;51.938;4.348;2022-09-06T10:25:12;102035.00;;;23.26;75.13
17362;BME280;8798;51.938;4.348;2022-09-06T10:31:07;102069.84;;;23.38;74.94
17362;BME280;8798;51.938;4.348;2022-09-06T10:33:46;102094.38;;;23.47;74.96
17362;BME280;8798;51.938;4.348;2022-09-06T10:36:24;102094.78;;;23.50;74.91
17362;BME280;8798;51.938;4.348;2022-09-06T10:38:59;102077.69;;;23.48;74.37
17362;BME280;8798;51.938;4.348;2022-09-06T10:42:00;102065.03;;;23.47;74.60
17362;BME280;8798;51.938;4.348;2022-09-06T10:44:43;102046.88;;;23.46;74.38
17362;BME280;8798;51.938;4.348;2022-09-06T10:47:14;102033.16;;;23.46;74.43
17362;BME280;8798;51.938;4.348;2022-09-06T10:49:44;102024.72;;;23.48;74.62
17362;BME280;8798;51.938;4.348;2022-09-06T10:52:19;102030.00;;;23.49;74.53
17362;BME280;8798;51.938;4.348;2022-09-06T10:54:52;102023.47;;;23.50;73.85
17362;BME280;8798;51.938;4.348;2022-09-06T10:57:26;102017.78;;;23.52;73.75
17362;BME280;8798;51.938;4.348;2022-09-06T11:00:17;102017.78;;;23.52;73.83
17362;BME280;8798;51.938;4.348;2022-09-06T11:02:50;102009.31;;;23.53;73.74
17362;BME280;8798;51.938;4.348;2022-09-06T11:05:45;102008.06;;;23.56;73.78
17362;BME280;8798;51.938;4.348;2022-09-06T11:08:21;102004.28;;;23.57;74.03
17362;BME280;8798;51.938;4.348;2022-09-06T11:11:15;102004.69;;;23.60;73.44
17362;BME280;8798;51.938;4.348;2022-09-06T11:13:45;102016.09;;;23.64;73.63
17362;BME280;8798;51.938;4.348;2022-09-06T11:16:17;102024.75;;;23.68;73.68
17362;BME280;8798;51.938;4.348;2022-09-06T11:18:48;102029.81;;;23.71;73.54
17362;BME280;8798;51.938;4.348;2022-09-06T11:24:35;102078.22;;;23.85;73.32
17362;BME280;8798;51.938;4.348;2022-09-06T11:27:11;102085.81;;;23.90;72.86
17362;BME280;8798;51.938;4.348;2022-09-06T11:29:44;102086.22;;;23.93;73.31
17362;BME280;8798;51.938;4.348;2022-09-06T11:32:28;102098.50;;;23.97;73.15
17362;BME280;8798;51.938;4.348;2022-09-06T11:35:00;102112.44;;;24.02;73.16
17362;BME280;8798;51.938;4.348;2022-09-06T11:37:31;102113.91;;;24.05;72.87
17362;BME280;8798;51.938;4.348;2022-09-06T11:40:06;102102.72;;;24.07;72.79
17362;BME280;8798;51.938;4.348;2022-09-06T11:43:14;102090.03;;;24.06;72.50
17362;BME280;8798;51.938;4.348;2022-09-06T11:45:46;102073.56;;;24.06;72.02
17362;BME280;8798;51.938;4.348;2022-09-06T11:48:33;102066.38;;;24.04;72.60
17362;BME280;8798;51.938;4.348;2022-09-06T11:51:05;102057.97;;;24.06;72.56
17362;BME280;8798;51.938;4.348;2022-09-06T11:54:01;102058.56;;;24.08;72.27
17362;BME280;8798;51.938;4.348;2022-09-06T11:56:33;102055.63;;;24.10;72.24
17362;BME280;8798;51.938;4.348;2022-09-06T11:59:12;102062.38;;;24.14;72.02
17362;BME280;8798;51.938;4.348;2022-09-06T12:01:59;102066.38;;;24.18;71.65
17362;BME280;8798;51.938;4.348;2022-09-06T12:08:11;102064.91;;;24.22;71.69
17362;BME280;8798;51.938;4.348;2022-09-06T12:10:59;102045.47;;;24.23;71.29
17362;BME280;8798;51.938;4.348;2022-09-06T12:13:38;102048.84;;;24.25;71.11
17362;BME280;8798;51.938;4.348;2022-09-06T12:16:09;102051.16;;;24.29;71.28
17362;BME280;8798;51.938;4.348;2022-09-06T12:18:58;102047.16;;;24.31;70.76
17362;BME280;8798;51.938;4.348;2022-09-06T12:21:46;102064.69;;;24.37;70.91
17362;BME280;8798;51.938;4.348;2022-09-06T12:24:53;102072.28;;;24.41;70.59
17362;BME280;8798;51.938;4.348;2022-09-06T12:27:22;102061.06;;;24.43;70.55
17362;BME280;8798;51.938;4.348;2022-09-06T12:29:54;102059.81;;;24.45;70.52
17362;BME280;8798;51.938;4.348;2022-09-06T12:32:28;102058.56;;;24.48;69.98
17362;BME280;8798;51.938;4.348;2022-09-06T12:35:03;102062.78;;;24.51;69.70
17362;BME280;8798;51.938;4.348;2022-09-06T12:37:54;102052.41;;;24.53;69.65
17362;BME280;8798;51.938;4.348;2022-09-06T12:40:26;102049.44;;;24.54;69.76
17362;BME280;8798;51.938;4.348;2022-09-06T12:42:55;102046.25;;;24.57;68.95
17362;BME280;8798;51.938;4.348;2022-09-06T12:45:23;102062.75;;;24.64;68.83
17362;BME280;8798;51.938;4.348;2022-09-06T12:48:05;102089.16;;;24.72;68.95
17362;BME280;8798;51.938;4.348;2022-09-06T12:50:35;102097.81;;;24.75;68.70
17362;BME280;8798;51.938;4.348;2022-09-06T12:53:17;102086.59;;;24.77;68.70
17362;BME280;8798;51.938;4.348;2022-09-06T12:56:01;102094.19;;;24.81;68.55
17362;BME280;8798;51.938;4.348;2022-09-06T12:58:29;102104.31;;;24.87;68.15
17362;BME280;8798;51.938;4.348;2022-09-06T13:01:02;102132.66;;;24.95;68.39
17362;BME280;8798;51.938;4.348;2022-09-06T13:03:38;102129.50;;;24.98;68.17
17362;BME280;8798;51.938;4.348;2022-09-06T13:06:10;102121.25;;;24.98;67.96
17362;BME280;8798;51.938;4.348;2022-09-06T13:08:42;102119.09;;;25.00;67.73
17362;BME280;8798;51.938;4.348;2022-09-06T13:11:13;102104.31;;;25.01;67.95
17362;BME280;8798;51.938;4.348;2022-09-06T13:13:46;102090.53;;;25.01;67.33
17362;BME280;8798;51.938;4.348;2022-09-06T13:16:22;102083.34;;;25.00;67.27
17362;BME280;8798;51.938;4.348;2022-09-06T13:18:53;102084.59;;;25.04;67.21
17362;BME280;8798;51.938;4.348;2022-09-06T13:21:26;102088.00;;;25.06;67.17
17362;BME280;8798;51.938;4.348;2022-09-06T13:23:54;102100.00;;;25.11;66.96
17362;BME280;8798;51.938;4.348;2022-09-06T13:26:32;102082.47;;;25.13;66.82
17362;BME280;8798;51.938;4.348;2022-09-06T13:29:11;102066.16;;;25.11;66.47
17362;BME280;8798;51.938;4.348;2022-09-06T13:31:49;102037.41;;;25.07;66.63
17362;BME280;8798;51.938;4.348;2022-09-06T13:34:21;102019.22;;;25.06;66.22
17362;BME280;8798;51.938;4.348;2022-09-06T13:36:51;102018.16;;;25.07;66.55
17362;BME280;8798;51.938;4.348;2022-09-06T13:39:30;102024.91;;;25.11;66.36